Time;durP1;ratioP1;P1;durP2;ratioP2;P2;SDS_P1;SDS_P2;PMS_P1;PMS_P2;Temp;Humidity;BMP_temperature;BMP_pressure;BME280_temperature;BME280_humidity;BME280_pressure;Samples;Min_cycle;Max_cycle;Signal;HPM_P1;HPM_P2
2022/11/22 00:00:43;;;;;;;11.75;5.05;;;;;;;6.00;98.57;99049.63;5054588;28;20045;-70
2022/11/22 00:03:11;;;;;;;15.85;4.43;;;;;;;6.00;98.53;99054.84;5049459;28;20041;-70
2022/11/22 00:05:38;;;;;;;15.25;5.18;;;;;;;6.00;98.73;99060.09;5050480;28;20042;-70
2022/11/22 00:08:06;;;;;;;10.38;4.20;;;;;;;6.01;98.20;99057.41;5047854;28;20229;-71
2022/11/22 00:10:34;;;;;;;17.10;4.53;;;;;;;6.03;98.37;99062.59;5058345;28;20040;-71
2022/11/22 00:13:02;;;;;;;12.80;4.25;;;;;;;6.03;98.39;99062.59;5052013;28;20037;-70
2022/11/22 00:15:29;;;;;;;11.57;3.80;;;;;;;6.04;98.49;99070.34;5054502;28;20068;-70
2022/11/22 00:17:57;;;;;;;12.75;3.92;;;;;;;6.06;98.46;99062.44;5056364;28;20151;-71
2022/11/22 00:20:24;;;;;;;11.07;3.80;;;;;;;6.06;98.28;99059.81;5054194;28;20503;-71
2022/11/22 00:22:51;;;;;;;10.20;3.40;;;;;;;6.05;98.21;99066.00;5060327;28;20050;-72
2022/11/22 00:25:19;;;;;;;12.63;3.70;;;;;;;6.04;98.44;99072.97;5066379;28;20092;-72
2022/11/22 00:27:46;;;;;;;14.57;4.20;;;;;;;6.05;98.46;99071.22;5051443;28;20045;-72
2022/11/22 00:30:13;;;;;;;15.52;3.70;;;;;;;6.08;98.55;99067.63;5054070;28;20129;-73
2022/11/22 00:32:40;;;;;;;11.65;3.60;;;;;;;6.09;98.78;99067.56;5045893;28;20556;-72
2022/11/22 00:35:09;;;;;;;17.42;4.38;;;;;;;6.10;98.66;99064.03;5048326;28;20451;-72
2022/11/22 00:37:37;;;;;;;9.90;3.67;;;;;;;6.10;98.59;99053.56;5049039;28;20533;-73
2022/11/22 00:40:05;;;;;;;10.00;3.75;;;;;;;6.10;98.45;99057.97;5048250;28;20041;-72
2022/11/22 00:42:33;;;;;;;11.27;3.75;;;;;;;6.10;98.50;99066.66;5058638;28;20046;-73
2022/11/22 00:45:00;;;;;;;8.10;3.10;;;;;;;6.12;98.70;99071.81;5048513;28;20045;-73
2022/11/22 00:47:27;;;;;;;9.40;3.50;;;;;;;6.15;98.79;99064.72;5060810;28;20045;-73
2022/11/22 00:49:54;;;;;;;10.98;3.22;;;;;;;6.16;98.81;99062.94;5052894;28;20507;-71
2022/11/22 00:52:21;;;;;;;12.38;3.22;;;;;;;6.14;98.59;99059.53;5052334;28;20128;-71
2022/11/22 00:54:48;;;;;;;8.52;3.20;;;;;;;6.13;98.51;99070.91;5053765;28;20042;-71
2022/11/22 00:57:21;;;;;;;11.13;3.50;;;;;;;6.13;98.61;99071.75;5063301;28;20842;-71
2022/11/22 00:59:48;;;;;;;7.63;3.35;;;;;;;6.13;98.89;99060.44;5066605;28;20518;-71
2022/11/22 01:02:16;;;;;;;9.68;3.22;;;;;;;6.11;99.06;99075.34;5064768;28;20923;-72
2022/11/22 01:04:43;;;;;;;10.88;3.30;;;;;;;6.12;99.12;99067.44;5052525;28;20915;-72
2022/11/22 01:07:10;;;;;;;9.65;3.33;;;;;;;6.10;98.92;99071.88;5048790;28;20046;-72
2022/11/22 01:09:37;;;;;;;9.98;3.15;;;;;;;6.09;99.07;99077.19;5057276;28;20049;-72
2022/11/22 01:12:04;;;;;;;11.50;3.45;;;;;;;6.10;99.34;99082.34;5061968;28;20743;-72
2022/11/22 01:14:32;;;;;;;9.50;3.00;;;;;;;6.13;99.51;99078.75;5055020;28;20042;-72
2022/11/22 01:16:59;;;;;;;8.15;3.25;;;;;;;6.17;99.63;99082.97;5052292;28;20076;-72
2022/11/22 01:19:26;;;;;;;9.90;3.47;;;;;;;6.22;99.72;99088.84;5045111;28;20072;-73
2022/11/22 01:21:53;;;;;;;7.68;3.50;;;;;;;6.27;99.70;99078.19;5047298;28;20048;-72
2022/11/22 01:24:20;;;;;;;10.80;3.40;;;;;;;6.28;99.78;99090.34;5056014;28;20042;-72
2022/11/22 01:26:47;;;;;;;9.57;3.92;;;;;;;6.27;99.90;99076.44;5061173;28;20034;-72
2022/11/22 01:29:14;;;;;;;8.75;3.60;;;;;;;6.28;99.82;99069.44;5052418;28;20049;-72
2022/11/22 01:31:41;;;;;;;10.40;4.20;;;;;;;6.26;99.63;99060.81;5053427;28;20037;-72
2022/11/22 01:34:08;;;;;;;10.57;4.28;;;;;;;6.21;99.56;99060.97;5052136;28;20051;-72
2022/11/22 01:36:35;;;;;;;8.60;4.10;;;;;;;6.15;99.63;99059.47;5055767;28;20046;-72
2022/11/22 01:39:03;;;;;;;9.13;4.50;;;;;;;6.12;99.54;99063.97;5057499;28;20045;-72
2022/11/22 01:41:31;;;;;;;9.70;4.40;;;;;;;6.06;99.48;99068.53;5057721;28;20036;-73
2022/11/22 01:44:34;;;;;;;13.68;5.00;;;;;;;6.06;99.47;99075.53;5059710;28;20071;-74
2022/11/22 01:47:16;;;;;;;9.98;5.43;;;;;;;6.05;99.83;99079.09;5060335;28;20427;-73
2022/11/22 01:49:52;;;;;;;14.27;5.95;;;;;;;6.03;99.87;99089.59;5047820;28;20605;-73
2022/11/22 01:52:24;;;;;;;14.88;6.55;;;;;;;6.03;99.97;99088.75;5059600;28;20057;-73
2022/11/22 01:55:01;;;;;;;12.75;6.80;;;;;;;6.06;100.00;99086.00;5051843;28;20065;-73
2022/11/22 01:57:37;;;;;;;13.55;6.05;;;;;;;6.06;100.00;99092.09;5054895;28;20119;-73
2022/11/22 02:00:12;;;;;;;13.95;6.05;;;;;;;6.03;99.90;99092.19;5057799;28;20037;-70
2022/11/22 02:02:50;;;;;;;10.95;5.97;;;;;;;6.01;99.90;99091.41;5050287;28;21953;-72
2022/11/22 02:05:22;;;;;;;15.23;5.67;;;;;;;5.94;99.87;99097.75;5051840;28;20040;-72
2022/11/22 02:08:13;;;;;;;15.32;5.90;;;;;;;5.89;100.00;99094.50;5060595;28;20324;-72
2022/11/22 02:10:47;;;;;;;13.02;5.28;;;;;;;5.84;99.87;99096.41;5052455;28;20042;-72
2022/11/22 02:13:19;;;;;;;15.27;5.80;;;;;;;5.77;100.00;99098.41;5048679;28;20045;-72
2022/11/22 02:15:46;;;;;;;10.73;4.50;;;;;;;5.73;100.00;99099.47;5049686;28;20057;-71
2022/11/22 02:18:13;;;;;;;13.27;4.50;;;;;;;5.70;100.00;99099.56;5062094;28;20522;-72
2022/11/22 02:20:40;;;;;;;7.90;4.60;;;;;;;5.59;100.00;99095.59;5057526;28;20064;-74
2022/11/22 02:23:22;;;;;;;11.52;4.50;;;;;;;5.60;100.00;99112.97;5052007;28;20135;-73
2022/11/22 02:25:54;;;;;;;12.63;4.40;;;;;;;5.56;100.00;99123.63;5049620;28;20045;-73
2022/11/22 02:28:22;;;;;;;10.88;3.95;;;;;;;5.51;100.00;99115.94;5056403;28;20053;-74
2022/11/22 02:30:49;;;;;;;13.40;4.80;;;;;;;5.50;100.00;99115.97;5045741;28;20042;-74
2022/11/22 02:33:16;;;;;;;11.00;3.90;;;;;;;5.49;100.00;99111.69;5053179;28;20586;-73
2022/11/22 02:35:43;;;;;;;18.02;4.07;;;;;;;5.50;100.00;99113.38;5053790;28;20045;-74
2022/11/22 02:38:17;;;;;;;12.13;3.47;;;;;;;5.51;100.00;99115.06;5048361;28;20048;-73
2022/11/22 02:41:06;;;;;;;10.82;3.72;;;;;;;5.52;100.00;99114.16;5049047;28;20037;-73
2022/11/22 02:43:41;;;;;;;10.18;3.42;;;;;;;5.50;100.00;99115.97;5053658;28;20047;-73
2022/11/22 02:46:22;;;;;;;13.65;3.70;;;;;;;5.46;100.00;99104.78;5069283;28;20454;-73
2022/11/22 02:48:49;;;;;;;13.38;3.65;;;;;;;5.46;100.00;99111.78;5054417;28;20044;-73
2022/11/22 02:51:18;;;;;;;12.02;3.53;;;;;;;5.46;100.00;99106.56;5050301;28;20053;-73
2022/11/22 02:53:49;;;;;;;13.07;3.22;;;;;;;5.43;100.00;99115.38;5039726;28;20558;-73
2022/11/22 02:56:16;;;;;;;14.35;3.58;;;;;;;5.43;100.00;99124.06;5050424;28;20145;-72
2022/11/22 02:58:44;;;;;;;14.40;3.25;;;;;;;5.44;100.00;99130.16;5061654;28;20167;-72
2022/11/22 03:01:13;;;;;;;14.27;3.20;;;;;;;5.46;100.00;99127.47;5045273;28;20859;-72
2022/11/22 03:03:40;;;;;;;13.82;3.13;;;;;;;5.49;100.00;99130.81;5056379;28;20045;-72
2022/11/22 03:06:08;;;;;;;15.00;3.35;;;;;;;5.53;100.00;99127.22;5058263;28;20059;-72
2022/11/22 03:08:35;;;;;;;11.68;2.97;;;;;;;5.57;100.00;99126.16;5048032;28;20033;-71
2022/11/22 03:11:02;;;;;;;13.68;2.92;;;;;;;5.64;100.00;99125.94;5044445;28;20048;-71
2022/11/22 03:13:29;;;;;;;17.70;3.15;;;;;;;5.67;100.00;99131.91;5052605;28;20084;-72
2022/11/22 03:15:56;;;;;;;15.48;3.33;;;;;;;5.70;100.00;99134.41;5058587;28;20623;-72
2022/11/22 03:18:24;;;;;;;17.00;2.83;;;;;;;5.71;100.00;99132.66;5058350;28;20041;-72
2022/11/22 03:20:51;;;;;;;12.98;2.83;;;;;;;5.71;100.00;99130.88;5050476;28;20045;-72
2022/11/22 03:23:18;;;;;;;19.60;3.05;;;;;;;5.69;100.00;99134.47;5051326;28;20156;-72
2022/11/22 03:25:45;;;;;;;16.70;3.03;;;;;;;5.66;100.00;99142.41;5058939;28;20519;-72
2022/11/22 03:28:12;;;;;;;15.57;3.00;;;;;;;5.59;100.00;99141.81;5051912;28;20071;-72
2022/11/22 03:30:41;;;;;;;14.90;2.85;;;;;;;5.55;100.00;99140.22;5056007;28;20041;-71
2022/11/22 03:33:09;;;;;;;14.35;3.20;;;;;;;5.49;100.00;99146.50;5052870;28;20042;-71
2022/11/22 03:35:36;;;;;;;16.02;2.78;;;;;;;5.46;100.00;99140.53;5053555;28;20848;-71
2022/11/22 03:38:03;;;;;;;14.60;2.50;;;;;;;5.41;100.00;99141.56;5051677;28;20041;-72
2022/11/22 03:40:30;;;;;;;13.82;2.53;;;;;;;5.38;100.00;99146.03;5040834;28;20049;-72
2022/11/22 03:43:00;;;;;;;17.55;3.28;;;;;;;5.34;99.94;99139.25;5049763;28;20053;-72
2022/11/22 03:45:28;;;;;;;15.15;2.95;;;;;;;5.31;99.87;99149.78;5059739;28;20048;-72
2022/11/22 03:47:56;;;;;;;23.02;2.75;;;;;;;5.27;99.91;99155.13;5050859;28;20037;-72
2022/11/22 03:50:23;;;;;;;15.40;2.58;;;;;;;5.22;99.68;99154.44;5054768;28;20057;-72
2022/11/22 03:52:50;;;;;;;16.52;2.70;;;;;;;5.19;99.78;99167.59;5050553;28;20124;-72
2022/11/22 03:55:17;;;;;;;17.52;2.80;;;;;;;5.16;99.76;99161.63;5062421;28;20092;-71
2022/11/22 03:57:44;;;;;;;14.50;2.70;;;;;;;5.10;99.82;99163.53;5050280;28;20080;-71
2022/11/22 04:00:12;;;;;;;14.93;2.50;;;;;;;5.07;99.73;99168.88;5050389;28;20601;-71
2022/11/22 04:02:40;;;;;;;18.52;2.85;;;;;;;5.05;99.92;99169.81;5049953;28;20080;-71
2022/11/22 04:05:07;;;;;;;23.08;3.30;;;;;;;5.00;99.81;99164.75;5058446;28;20045;-71
2022/11/22 04:07:35;;;;;;;16.05;3.20;;;;;;;4.97;99.75;99173.56;5049910;28;20046;-70
2022/11/22 04:10:04;;;;;;;18.38;2.85;;;;;;;4.96;99.97;99178.84;5063792;28;20033;-71
2022/11/22 04:12:31;;;;;;;14.65;3.42;;;;;;;4.94;99.96;99178.88;5052498;28;20045;-71
2022/11/22 04:15:07;;;;;;;14.27;2.22;;;;;;;4.92;100.00;99180.72;5065694;28;20067;-71
2022/11/22 04:17:43;;;;;;;17.20;3.20;;;;;;;4.92;100.00;99183.31;5049758;28;20064;-70
2022/11/22 04:23:21;;;;;;;19.88;2.75;;;;;;;4.90;100.00;99194.69;5042540;28;20466;-73
2022/11/22 04:25:52;;;;;;;24.38;4.10;;;;;;;4.87;100.00;99203.50;5060530;28;20555;-73
2022/11/22 04:28:24;;;;;;;13.43;2.63;;;;;;;4.87;99.96;99208.72;5049118;28;20038;-73
2022/11/22 04:33:57;;;;;;;12.77;2.60;;;;;;;4.78;99.86;99196.81;5054700;28;20052;-73
2022/11/22 04:36:25;;;;;;;15.75;2.58;;;;;;;4.74;99.73;99197.84;5058309;28;20076;-73
2022/11/22 04:38:52;;;;;;;16.05;2.95;;;;;;;4.70;99.64;99203.22;5042348;28;20099;-73
2022/11/22 04:41:19;;;;;;;15.27;3.08;;;;;;;4.64;99.65;99194.66;5049558;28;20050;-71
2022/11/22 04:46:32;;;;;;;17.00;2.90;;;;;;;4.57;99.85;99195.75;5057736;28;20145;-71
2022/11/22 04:48:59;;;;;;;12.90;3.10;;;;;;;4.55;99.74;99202.78;5041152;28;20053;-71
2022/11/22 04:54:12;;;;;;;15.48;2.70;;;;;;;4.51;99.64;99201.19;5054889;28;20502;-71
2022/11/22 04:56:39;;;;;;;13.38;2.40;;;;;;;4.50;99.71;99209.91;5064844;28;20045;-71
2022/11/22 04:59:06;;;;;;;12.70;2.75;;;;;;;4.47;99.86;99215.22;5049470;28;20128;-71
2022/11/22 05:01:33;;;;;;;16.83;3.10;;;;;;;4.44;99.77;99218.78;5056537;28;20046;-71
2022/11/22 05:04:00;;;;;;;14.65;2.58;;;;;;;4.38;99.59;99221.56;5051359;28;20045;-72
2022/11/22 05:06:29;;;;;;;16.00;2.95;;;;;;;4.39;99.80;99218.06;5051796;28;20157;-72
2022/11/22 05:08:56;;;;;;;15.93;2.90;;;;;;;4.35;99.63;99213.84;5051778;28;20034;-72
2022/11/22 05:11:23;;;;;;;18.88;2.83;;;;;;;4.31;99.53;99205.28;5061613;28;20045;-72
2022/11/22 05:13:50;;;;;;;17.45;3.00;;;;;;;4.28;99.49;99205.34;5062251;28;20038;-72
2022/11/22 05:16:17;;;;;;;18.20;2.72;;;;;;;4.25;99.65;99208.06;5062510;28;20048;-72
2022/11/22 05:18:57;;;;;;;16.13;2.63;;;;;;;4.21;99.52;99206.47;5046865;28;20046;-72
2022/11/22 05:21:26;;;;;;;10.20;2.35;;;;;;;4.17;99.53;99210.03;5040528;28;20042;-72
2022/11/22 05:23:55;;;;;;;12.73;2.75;;;;;;;4.13;99.48;99227.53;5047961;28;20077;-72
2022/11/22 05:26:33;;;;;;;17.38;3.10;;;;;;;4.09;99.49;99219.84;5049689;28;20084;-72
2022/11/22 05:29:07;;;;;;;13.38;2.58;;;;;;;4.04;99.58;99215.63;5048120;28;20029;-72
2022/11/22 05:31:37;;;;;;;14.45;2.47;;;;;;;3.99;99.59;99220.13;5048484;28;20091;-72
2022/11/22 05:34:05;;;;;;;17.40;3.33;;;;;;;3.98;99.69;99213.19;5045512;28;20096;-72
2022/11/22 05:36:33;;;;;;;16.55;2.90;;;;;;;3.96;99.71;99212.38;5049503;28;20045;-72
2022/11/22 05:39:01;;;;;;;18.88;2.97;;;;;;;3.94;99.80;99216.78;5047212;28;20782;-72
2022/11/22 05:41:29;;;;;;;12.20;2.65;;;;;;;3.92;99.71;99220.34;5047398;28;20052;-71
2022/11/22 05:43:57;;;;;;;13.90;3.47;;;;;;;3.87;99.87;99208.28;5047914;28;20496;-71
2022/11/22 05:46:27;;;;;;;16.92;2.63;;;;;;;3.83;99.86;99211.03;5045775;28;20047;-71
2022/11/22 05:48:57;;;;;;;14.02;3.20;;;;;;;3.83;99.89;99216.22;5046921;28;20080;-70
2022/11/22 05:51:30;;;;;;;13.38;3.10;;;;;;;3.82;99.88;99220.59;5044469;28;20100;-70
2022/11/22 05:54:02;;;;;;;23.80;3.08;;;;;;;3.81;99.95;99228.50;5048927;28;20099;-72
2022/11/22 05:56:29;;;;;;;17.95;2.72;;;;;;;3.79;99.95;99222.47;5048596;28;20541;-72
2022/11/22 05:58:56;;;;;;;15.20;2.50;;;;;;;3.79;100.00;99225.91;5043513;28;20052;-71
2022/11/22 06:01:24;;;;;;;11.35;2.20;;;;;;;3.78;100.00;99218.13;5048614;28;20116;-71
2022/11/22 06:03:51;;;;;;;15.02;2.22;;;;;;;3.77;100.00;99214.66;5047026;28;20088;-72
2022/11/22 06:06:19;;;;;;;13.68;2.42;;;;;;;3.76;100.00;99214.72;5044463;28;21041;-70
2022/11/22 06:08:47;;;;;;;13.60;2.50;;;;;;;3.78;100.00;99223.34;5046739;28;20041;-70
2022/11/22 06:11:19;;;;;;;10.07;2.35;;;;;;;3.78;99.96;99216.38;5051334;28;20041;-70
2022/11/22 06:13:50;;;;;;;11.93;2.97;;;;;;;3.78;100.00;99223.34;5049713;28;20037;-70
2022/11/22 06:16:18;;;;;;;15.02;2.50;;;;;;;3.81;100.00;99224.13;5051630;28;20139;-70
2022/11/22 06:18:46;;;;;;;11.07;2.28;;;;;;;3.87;100.00;99223.09;5044848;28;20049;-70
2022/11/22 06:21:18;;;;;;;18.63;3.65;;;;;;;3.88;100.00;99211.75;5038984;28;20772;-70
2022/11/22 06:23:45;;;;;;;13.52;2.35;;;;;;;3.96;100.00;99228.03;5047074;28;20048;-70
2022/11/22 06:26:17;;;;;;;20.13;2.65;;;;;;;4.07;100.00;99235.53;5048734;28;20041;-70
2022/11/22 06:28:46;;;;;;;12.95;2.60;;;;;;;4.24;100.00;99235.03;5060352;28;20100;-70
2022/11/22 06:31:20;;;;;;;12.80;2.65;;;;;;;4.30;99.94;99240.09;5051767;28;20045;-71
2022/11/22 06:33:48;;;;;;;9.85;2.47;;;;;;;4.22;99.61;99236.88;5049727;28;20041;-71
2022/11/22 06:36:22;;;;;;;16.15;2.83;;;;;;;4.10;99.09;99235.44;5051274;28;20384;-71
2022/11/22 06:38:50;;;;;;;12.07;2.80;;;;;;;3.98;98.60;99241.88;5051528;28;20049;-71
2022/11/22 06:41:30;;;;;;;15.73;2.97;;;;;;;3.87;98.60;99247.38;5040554;28;20046;-71
2022/11/22 06:43:57;;;;;;;8.02;2.75;;;;;;;3.78;98.71;99244.19;5044602;28;20038;-71
2022/11/22 06:46:26;;;;;;;20.08;4.60;;;;;;;3.70;98.75;99244.41;5041645;28;20145;-71
2022/11/22 06:48:53;;;;;;;27.42;7.80;;;;;;;3.61;98.87;99235.09;5045982;28;20040;-71
2022/11/22 06:51:28;;;;;;;16.73;4.43;;;;;;;3.55;98.74;99237.88;5040344;28;20619;-71
2022/11/22 06:53:57;;;;;;;18.20;3.95;;;;;;;3.49;99.06;99232.81;5026294;28;20049;-70
2022/11/22 06:56:31;;;;;;;17.50;3.58;;;;;;;3.44;98.89;99248.59;5048757;28;20080;-71
2022/11/22 06:59:02;;;;;;;19.33;4.80;;;;;;;3.42;98.96;99255.59;5047540;28;20042;-71
2022/11/22 07:01:32;;;;;;;19.65;5.22;;;;;;;3.40;99.21;99254.75;5047540;28;20050;-71
2022/11/22 07:04:04;;;;;;;19.95;4.93;;;;;;;3.38;99.21;99257.41;5050241;28;20075;-71
2022/11/22 07:06:36;;;;;;;23.35;5.90;;;;;;;3.33;99.36;99261.88;5051859;28;20049;-72
2022/11/22 07:09:09;;;;;;;16.23;5.18;;;;;;;3.34;99.39;99267.97;5035045;28;20049;-72
2022/11/22 07:11:38;;;;;;;18.75;5.00;;;;;;;3.32;99.25;99265.38;5051384;28;20038;-72
2022/11/22 07:14:06;;;;;;;16.10;3.72;;;;;;;3.33;99.41;99276.66;5037720;28;20030;-72
2022/11/22 07:16:37;;;;;;;23.70;8.00;;;;;;;3.34;99.58;99279.22;5049431;28;20407;-71
2022/11/22 07:19:05;;;;;;;12.88;5.00;;;;;;;3.33;99.70;99272.28;5042281;28;20042;-71
2022/11/22 07:21:36;;;;;;;16.42;5.05;;;;;;;3.33;99.69;99274.06;5044065;28;20628;-73
2022/11/22 07:24:05;;;;;;;18.50;3.50;;;;;;;3.32;99.71;99274.94;5051363;28;20041;-72
2022/11/22 07:26:33;;;;;;;10.23;3.20;;;;;;;3.33;99.53;99284.47;5016833;28;20559;-72
2022/11/22 07:29:00;;;;;;;13.88;3.80;;;;;;;3.33;99.54;99281.88;5043188;28;20046;-71
2022/11/22 07:31:27;;;;;;;16.00;5.53;;;;;;;3.33;99.65;99290.53;5042053;28;20042;-71
2022/11/22 07:33:59;;;;;;;16.85;4.43;;;;;;;3.37;99.71;99292.19;5050456;28;20041;-71
2022/11/22 07:36:28;;;;;;;18.98;5.43;;;;;;;3.40;99.87;99289.50;5050638;28;20049;-71
2022/11/22 07:38:55;;;;;;;18.05;7.15;;;;;;;3.50;99.89;99291.88;5049976;28;20675;-71
2022/11/22 07:41:22;;;;;;;21.20;5.82;;;;;;;3.63;100.00;99297.59;5022047;28;20069;-71
2022/11/22 07:43:51;;;;;;;18.67;5.88;;;;;;;3.77;100.00;99305.06;5040648;28;20092;-72
2022/11/22 07:46:21;;;;;;;12.63;4.10;;;;;;;3.90;100.00;99301.22;5047523;28;20052;-72
2022/11/22 07:48:49;;;;;;;19.80;3.72;;;;;;;4.02;100.00;99303.47;5046700;28;20092;-71
2022/11/22 07:51:17;;;;;;;17.88;5.00;;;;;;;4.15;100.00;99316.16;5049405;28;20589;-71
2022/11/22 07:53:44;;;;;;;13.52;3.70;;;;;;;4.27;100.00;99309.78;5050889;28;20037;-72
2022/11/22 07:56:12;;;;;;;15.95;3.67;;;;;;;4.37;100.00;99312.94;5034390;28;20037;-71
2022/11/22 07:58:40;;;;;;;19.83;3.25;;;;;;;4.46;99.99;99304.84;5044337;28;20045;-71
2022/11/22 08:01:13;;;;;;;13.05;3.00;;;;;;;4.57;99.71;99305.38;5039035;28;20041;-71
2022/11/22 08:03:43;;;;;;;17.48;3.13;;;;;;;4.63;99.31;99304.34;5051098;28;20563;-71
2022/11/22 08:06:12;;;;;;;17.70;3.42;;;;;;;4.68;99.43;99310.25;5049876;28;20033;-72
2022/11/22 08:08:39;;;;;;;15.70;3.10;;;;;;;4.74;98.97;99311.84;5036240;28;20042;-73
2022/11/22 08:11:07;;;;;;;17.80;2.80;;;;;;;4.80;98.48;99309.91;5033126;28;20117;-73
2022/11/22 08:13:35;;;;;;;11.75;3.42;;;;;;;4.84;97.90;99305.44;5051315;28;20049;-73
2022/11/22 08:16:07;;;;;;;15.75;3.80;;;;;;;4.89;97.28;99308.78;5050746;28;20068;-73
2022/11/22 08:18:37;;;;;;;17.75;3.53;;;;;;;4.94;96.96;99311.22;5050886;28;20046;-72
2022/11/22 08:21:10;;;;;;;13.50;4.00;;;;;;;4.99;96.93;99309.31;5042067;28;20049;-73
2022/11/22 08:23:38;;;;;;;12.60;2.63;;;;;;;5.01;96.94;99314.50;5050462;28;20490;-73
2022/11/22 08:26:13;;;;;;;10.18;2.50;;;;;;;5.05;96.72;99313.50;5050676;28;20049;-72
2022/11/22 08:28:43;;;;;;;15.77;2.85;;;;;;;5.10;96.76;99314.22;5041589;28;20038;-73
2022/11/22 08:31:14;;;;;;;13.10;2.70;;;;;;;5.15;96.52;99306.22;5040484;28;20053;-73
2022/11/22 08:33:42;;;;;;;10.48;2.83;;;;;;;5.19;96.44;99315.69;5050181;28;20041;-73
2022/11/22 08:36:09;;;;;;;15.32;3.92;;;;;;;5.25;96.39;99318.09;5050342;28;20490;-73
2022/11/22 08:38:36;;;;;;;10.63;4.00;;;;;;;5.30;96.12;99316.16;5045359;28;20038;-72
2022/11/22 08:41:07;;;;;;;12.82;3.40;;;;;;;5.35;95.57;99313.41;5039395;28;20120;-73
2022/11/22 08:43:36;;;;;;;11.85;2.80;;;;;;;5.40;95.51;99314.13;5050544;28;20041;-73
2022/11/22 08:46:05;;;;;;;12.65;3.55;;;;;;;5.46;95.20;99319.13;5049894;28;20041;-72
2022/11/22 08:48:35;;;;;;;13.38;3.90;;;;;;;5.50;94.87;99315.50;5049314;28;20117;-73
2022/11/22 08:51:08;;;;;;;12.45;2.70;;;;;;;5.55;94.34;99318.81;5041061;28;20061;-73
2022/11/22 08:53:42;;;;;;;16.27;5.00;;;;;;;5.60;94.42;99322.13;5043271;28;20041;-72
2022/11/22 08:56:13;;;;;;;8.65;3.40;;;;;;;5.65;93.99;99321.97;5047155;28;20037;-73
2022/11/22 08:58:40;;;;;;;10.60;2.53;;;;;;;5.68;93.22;99318.41;5044702;28;20137;-73
2022/11/22 09:01:14;;;;;;;7.00;2.25;;;;;;;5.73;92.69;99321.72;5030983;28;20048;-73
2022/11/22 09:03:44;;;;;;;10.93;1.83;;;;;;;5.75;92.63;99317.28;5050206;28;20100;-73
2022/11/22 09:06:15;;;;;;;9.55;2.00;;;;;;;5.85;91.93;99323.03;5043433;28;20200;-73
2022/11/22 09:09:02;;;;;;;8.65;1.92;;;;;;;5.93;92.09;99323.63;5051147;28;20041;-73
2022/11/22 09:11:49;;;;;;;9.98;2.90;;;;;;;6.03;92.31;99337.28;5050813;28;20806;-72
2022/11/22 09:14:20;;;;;;;9.02;2.85;;;;;;;6.10;92.19;99333.53;5045565;28;20040;-71
2022/11/22 09:16:47;;;;;;;11.38;2.10;;;;;;;6.15;92.18;99329.00;5045973;28;20514;-73
2022/11/22 09:19:15;;;;;;;9.52;2.33;;;;;;;6.24;91.79;99327.78;5044606;28;20776;-72
2022/11/22 09:21:42;;;;;;;9.38;2.15;;;;;;;6.31;91.42;99333.66;5050374;28;20895;-74
2022/11/22 09:24:09;;;;;;;8.98;2.05;;;;;;;6.37;91.25;99343.88;5036845;28;20038;-74
2022/11/22 09:26:37;;;;;;;9.63;2.13;;;;;;;6.43;90.94;99334.97;5053687;28;20049;-71
2022/11/22 09:29:04;;;;;;;7.93;2.13;;;;;;;6.44;90.80;99340.16;5046554;28;20388;-74
2022/11/22 09:31:31;;;;;;;8.57;2.00;;;;;;;6.43;90.51;99346.28;5053127;28;20048;-73
2022/11/22 09:34:00;;;;;;;8.88;2.33;;;;;;;6.42;90.43;99348.94;5053050;28;20046;-74
2022/11/22 09:36:27;;;;;;;7.80;2.20;;;;;;;6.40;90.13;99342.94;5046045;28;20042;-72
2022/11/22 09:38:55;;;;;;;7.47;1.98;;;;;;;6.41;89.91;99349.88;5053189;28;20037;-73
2022/11/22 09:41:56;;;;;;;12.38;2.20;;;;;;;6.50;88.51;99346.94;5045004;28;20563;-73
2022/11/22 09:45:02;;;;;;;10.55;2.03;;;;;;;6.69;88.76;99339.22;5036728;28;20053;-73
2022/11/22 09:47:50;;;;;;;7.82;1.73;;;;;;;6.81;88.55;99335.28;5031025;28;20490;-73
2022/11/22 09:50:44;;;;;;;12.05;1.70;;;;;;;6.84;87.59;99332.53;5052616;28;20148;-73
2022/11/22 09:53:36;;;;;;;7.18;1.73;;;;;;;6.84;86.97;99330.78;5052260;28;20033;-73
2022/11/22 09:56:11;;;;;;;13.45;2.50;;;;;;;6.84;87.79;99330.78;5051886;28;20743;-73
2022/11/22 09:58:50;;;;;;;8.70;1.77;;;;;;;6.95;88.40;99324.25;5044923;28;20049;-73
2022/11/22 10:01:29;;;;;;;7.13;2.42;;;;;;;7.10;87.87;99331.50;5043963;28;20049;-74
2022/11/22 10:04:09;;;;;;;11.02;3.80;;;;;;;7.16;87.34;99314.69;5048853;28;20049;-74
2022/11/22 10:06:52;;;;;;;11.95;5.90;;;;;;;7.27;87.27;99319.50;5049999;28;20044;-74
2022/11/22 10:09:41;;;;;;;11.70;5.25;;;;;;;7.34;86.64;99320.94;5041507;28;20050;-73
2022/11/22 10:12:21;;;;;;;7.97;2.88;;;;;;;7.40;86.71;99318.06;5050338;28;20538;-73
2022/11/22 10:15:25;;;;;;;11.07;8.02;;;;;;;7.46;86.54;99315.19;5039576;28;20088;-72
2022/11/22 10:18:37;;;;;;;12.40;3.65;;;;;;;7.57;86.02;99311.28;5052050;28;20056;-74
2022/11/22 10:21:11;;;;;;;10.82;3.15;;;;;;;7.59;85.01;99306.78;5034086;28;20050;-74
2022/11/22 10:23:43;;;;;;;7.47;2.58;;;;;;;7.66;85.14;99310.00;5038525;28;20507;-74
2022/11/22 10:26:25;;;;;;;11.55;3.22;;;;;;;7.69;84.48;99313.34;5044077;28;20045;-72
2022/11/22 10:29:18;;;;;;;6.30;1.70;;;;;;;7.71;84.87;99302.81;5040064;28;20049;-74
2022/11/22 10:32:21;;;;;;;5.38;1.20;;;;;;;7.76;85.28;99303.44;5051993;28;20046;-74
2022/11/22 10:35:10;;;;;;;7.65;1.60;;;;;;;7.81;84.49;99300.63;5047531;28;20096;-74
2022/11/22 10:38:02;;;;;;;5.40;1.10;;;;;;;7.84;85.27;99298.72;5026237;28;20132;-74
2022/11/22 10:40:52;;;;;;;6.28;1.52;;;;;;;7.91;85.37;99305.41;5044286;28;20511;-74
2022/11/22 10:43:41;;;;;;;5.80;1.30;;;;;;;7.96;84.17;99310.47;5049816;28;20046;-74
2022/11/22 10:46:45;;;;;;;3.95;1.20;;;;;;;7.95;84.40;99297.41;5032580;28;20088;-74
2022/11/22 10:49:43;;;;;;;6.80;1.33;;;;;;;7.98;83.77;99297.28;5044796;28;20053;-73
2022/11/22 10:52:46;;;;;;;5.68;1.20;;;;;;;8.01;83.96;99308.47;5048040;28;20033;-73
2022/11/22 10:55:22;;;;;;;7.60;1.30;;;;;;;8.01;83.72;99297.13;5050643;28;20044;-73
2022/11/22 10:58:31;;;;;;;6.15;1.30;;;;;;;7.97;83.24;99293.81;5050045;28;20761;-74
2022/11/22 11:01:32;;;;;;;193.73;109.07;;;;;;;7.96;83.53;99288.59;5042039;28;20045;-74
2022/11/22 11:04:02;;;;;;;13.00;7.40;;;;;;;7.95;83.83;99286.91;5036343;28;20534;-74
2022/11/22 11:06:39;;;;;;;6.05;1.85;;;;;;;7.97;83.60;99285.06;5050457;28;20045;-74
2022/11/22 11:09:45;;;;;;;27.80;14.32;;;;;;;7.97;83.63;99278.06;5048373;28;20034;-74
2022/11/22 11:13:04;;;;;;;14.52;12.73;;;;;;;7.97;83.56;99269.31;5049252;28;20130;-74
2022/11/22 11:15:46;;;;;;;6.30;3.47;;;;;;;8.05;83.69;99272.44;5050899;28;20192;-74
2022/11/22 11:18:50;;;;;;;7.57;1.63;;;;;;;8.11;83.78;99272.19;5037586;28;20046;-74
2022/11/22 11:21:19;;;;;;;4.30;1.10;;;;;;;8.16;83.07;99266.72;5022228;28;20053;-74
2022/11/22 11:23:47;;;;;;;4.63;2.22;;;;;;;8.18;83.12;99262.25;5046565;28;20482;-74
2022/11/22 11:26:25;;;;;;;4.35;1.90;;;;;;;8.23;83.22;99265.50;5050399;28;20529;-74
2022/11/22 11:29:17;;;;;;;5.22;2.67;;;;;;;8.24;82.41;99254.09;5048619;28;20109;-74
2022/11/22 11:31:50;;;;;;;4.05;1.42;;;;;;;8.22;82.85;99263.81;5050315;28;20048;-74
2022/11/22 11:34:28;;;;;;;3.88;1.23;;;;;;;8.24;83.37;99264.59;5050443;28;20045;-74
2022/11/22 11:36:59;;;;;;;32.13;15.77;;;;;;;8.29;82.75;99251.25;5050500;28;20482;-74
2022/11/22 11:39:31;;;;;;;175.25;68.13;;;;;;;8.34;82.58;99259.78;5051613;28;20477;-74
2022/11/22 11:42:22;;;;;;;48.65;18.98;;;;;;;8.42;81.43;99265.53;5052210;28;20163;-74
2022/11/22 11:44:50;;;;;;;121.45;42.75;;;;;;;8.44;82.12;99254.94;5045228;28;20128;-75
2022/11/22 11:47:32;;;;;;;235.07;80.38;;;;;;;8.45;81.72;99256.66;5051884;28;20523;-74
2022/11/22 11:50:00;;;;;;;20.05;15.48;;;;;;;8.45;81.28;99257.50;5029327;28;20168;-75
2022/11/22 11:52:29;;;;;;;28.30;18.73;;;;;;;8.44;81.61;99254.94;5032070;28;20038;-75
2022/11/22 11:55:01;;;;;;;9.02;4.70;;;;;;;8.44;82.04;99260.19;5031393;28;20067;-75
2022/11/22 11:57:33;;;;;;;5.57;4.38;;;;;;;8.45;80.85;99261.91;5016857;28;20101;-75
2022/11/22 12:00:18;;;;;;;3.90;2.00;;;;;;;8.42;81.08;99255.03;5021549;28;20125;-74
2022/11/22 12:02:46;;;;;;;8.05;2.47;;;;;;;8.46;80.61;99256.56;5031407;28;20117;-74
2022/11/22 12:05:13;;;;;;;7.28;3.40;;;;;;;8.46;80.38;99256.56;5030641;28;20034;-74
2022/11/22 12:07:43;;;;;;;10.65;6.43;;;;;;;8.47;79.61;99258.31;5031171;28;20608;-74
2022/11/22 12:10:32;;;;;;;7.80;4.75;;;;;;;8.48;79.42;99253.94;5028523;28;20058;-74